sensor_id;sensor_type;location;lat;lon;timestamp;P1;durP1;ratioP1;P2;durP2;ratioP2
16320;SDS011;8269;50.990;4.494;2023-04-03T00:02:10;11.40;;;8.30;;
16320;SDS011;8269;50.990;4.494;2023-04-03T00:04:36;11.27;;;8.60;;
16320;SDS011;8269;50.990;4.494;2023-04-03T00:07:02;9.90;;;7.63;;
16320;SDS011;8269;50.990;4.494;2023-04-03T00:09:28;12.43;;;8.43;;
16320;SDS011;8269;50.990;4.494;2023-04-03T00:11:54;10.60;;;8.07;;
16320;SDS011;8269;50.990;4.494;2023-04-03T00:14:20;12.57;;;8.20;;
16320;SDS011;8269;50.990;4.494;2023-04-03T00:16:46;10.77;;;8.57;;
16320;SDS011;8269;50.990;4.494;2023-04-03T00:19:12;10.13;;;8.07;;
16320;SDS011;8269;50.990;4.494;2023-04-03T00:21:38;10.33;;;7.87;;
16320;SDS011;8269;50.990;4.494;2023-04-03T00:24:05;11.93;;;8.47;;
16320;SDS011;8269;50.990;4.494;2023-04-03T00:26:31;13.57;;;8.77;;
16320;SDS011;8269;50.990;4.494;2023-04-03T00:28:57;10.63;;;7.63;;
16320;SDS011;8269;50.990;4.494;2023-04-03T00:31:23;10.67;;;8.23;;
16320;SDS011;8269;50.990;4.494;2023-04-03T00:33:50;11.60;;;7.53;;
16320;SDS011;8269;50.990;4.494;2023-04-03T00:36:16;9.77;;;8.10;;
16320;SDS011;8269;50.990;4.494;2023-04-03T00:38:42;13.60;;;7.90;;
16320;SDS011;8269;50.990;4.494;2023-04-03T00:41:08;9.70;;;7.37;;
16320;SDS011;8269;50.990;4.494;2023-04-03T00:43:34;13.00;;;7.87;;
16320;SDS011;8269;50.990;4.494;2023-04-03T00:46:00;10.07;;;7.77;;
16320;SDS011;8269;50.990;4.494;2023-04-03T00:48:31;10.43;;;8.17;;
16320;SDS011;8269;50.990;4.494;2023-04-03T00:50:58;9.67;;;6.80;;
16320;SDS011;8269;50.990;4.494;2023-04-03T00:53:26;10.97;;;7.87;;
16320;SDS011;8269;50.990;4.494;2023-04-03T00:55:53;9.30;;;7.30;;
16320;SDS011;8269;50.990;4.494;2023-04-03T00:58:21;12.47;;;7.63;;
16320;SDS011;8269;50.990;4.494;2023-04-03T01:00:50;10.73;;;7.20;;
16320;SDS011;8269;50.990;4.494;2023-04-03T01:03:21;13.23;;;7.63;;
16320;SDS011;8269;50.990;4.494;2023-04-03T01:05:47;10.33;;;7.80;;
16320;SDS011;8269;50.990;4.494;2023-04-03T01:08:14;11.53;;;6.93;;
16320;SDS011;8269;50.990;4.494;2023-04-03T01:10:40;10.43;;;7.77;;
16320;SDS011;8269;50.990;4.494;2023-04-03T01:13:28;11.20;;;7.53;;
16320;SDS011;8269;50.990;4.494;2023-04-03T01:15:52;9.90;;;7.30;;
16320;SDS011;8269;50.990;4.494;2023-04-03T01:18:18;10.53;;;7.00;;
16320;SDS011;8269;50.990;4.494;2023-04-03T01:20:50;11.23;;;7.27;;
16320;SDS011;8269;50.990;4.494;2023-04-03T01:25:52;8.97;;;7.30;;
16320;SDS011;8269;50.990;4.494;2023-04-03T01:28:21;12.07;;;8.00;;
16320;SDS011;8269;50.990;4.494;2023-04-03T01:30:53;9.17;;;6.90;;
16320;SDS011;8269;50.990;4.494;2023-04-03T01:33:22;10.33;;;7.17;;
16320;SDS011;8269;50.990;4.494;2023-04-03T01:35:48;9.10;;;6.93;;
16320;SDS011;8269;50.990;4.494;2023-04-03T01:38:14;9.63;;;6.77;;
16320;SDS011;8269;50.990;4.494;2023-04-03T01:40:40;8.57;;;6.90;;
16320;SDS011;8269;50.990;4.494;2023-04-03T01:43:07;8.40;;;6.70;;
16320;SDS011;8269;50.990;4.494;2023-04-03T01:45:33;9.53;;;7.17;;
16320;SDS011;8269;50.990;4.494;2023-04-03T01:47:59;10.67;;;6.73;;
16320;SDS011;8269;50.990;4.494;2023-04-03T01:50:25;11.33;;;7.27;;
16320;SDS011;8269;50.990;4.494;2023-04-03T01:52:51;10.33;;;7.17;;
16320;SDS011;8269;50.990;4.494;2023-04-03T01:55:17;9.73;;;6.83;;
16320;SDS011;8269;50.990;4.494;2023-04-03T01:57:43;9.87;;;6.43;;
16320;SDS011;8269;50.990;4.494;2023-04-03T02:00:09;10.47;;;6.97;;
16320;SDS011;8269;50.990;4.494;2023-04-03T02:02:35;10.93;;;7.23;;
16320;SDS011;8269;50.990;4.494;2023-04-03T02:05:02;9.60;;;7.60;;
16320;SDS011;8269;50.990;4.494;2023-04-03T02:07:28;11.13;;;6.87;;
16320;SDS011;8269;50.990;4.494;2023-04-03T02:09:54;11.23;;;7.10;;
16320;SDS011;8269;50.990;4.494;2023-04-03T02:12:20;10.27;;;7.60;;
16320;SDS011;8269;50.990;4.494;2023-04-03T02:14:46;11.23;;;6.53;;
16320;SDS011;8269;50.990;4.494;2023-04-03T02:17:12;11.07;;;7.60;;
16320;SDS011;8269;50.990;4.494;2023-04-03T02:19:38;10.07;;;7.60;;
16320;SDS011;8269;50.990;4.494;2023-04-03T02:22:04;10.53;;;8.23;;
16320;SDS011;8269;50.990;4.494;2023-04-03T02:24:31;12.53;;;7.67;;
16320;SDS011;8269;50.990;4.494;2023-04-03T02:26:57;10.93;;;7.73;;
16320;SDS011;8269;50.990;4.494;2023-04-03T02:29:23;9.63;;;7.23;;
16320;SDS011;8269;50.990;4.494;2023-04-03T02:31:49;11.93;;;7.73;;
16320;SDS011;8269;50.990;4.494;2023-04-03T02:34:15;11.77;;;7.57;;
16320;SDS011;8269;50.990;4.494;2023-04-03T02:36:41;13.00;;;8.10;;
16320;SDS011;8269;50.990;4.494;2023-04-03T02:39:08;10.63;;;7.47;;
16320;SDS011;8269;50.990;4.494;2023-04-03T02:41:34;10.90;;;8.07;;
16320;SDS011;8269;50.990;4.494;2023-04-03T02:44:04;9.13;;;7.07;;
16320;SDS011;8269;50.990;4.494;2023-04-03T02:46:30;11.27;;;7.63;;
16320;SDS011;8269;50.990;4.494;2023-04-03T02:48:56;11.40;;;8.10;;
16320;SDS011;8269;50.990;4.494;2023-04-03T02:51:23;9.83;;;7.60;;
16320;SDS011;8269;50.990;4.494;2023-04-03T02:53:49;9.50;;;7.60;;
16320;SDS011;8269;50.990;4.494;2023-04-03T02:56:15;11.53;;;8.60;;
16320;SDS011;8269;50.990;4.494;2023-04-03T02:58:42;10.13;;;7.40;;
16320;SDS011;8269;50.990;4.494;2023-04-03T03:01:08;10.93;;;7.77;;
16320;SDS011;8269;50.990;4.494;2023-04-03T03:03:34;12.13;;;7.60;;
16320;SDS011;8269;50.990;4.494;2023-04-03T03:06:04;12.07;;;8.33;;
16320;SDS011;8269;50.990;4.494;2023-04-03T03:08:31;12.67;;;8.27;;
16320;SDS011;8269;50.990;4.494;2023-04-03T03:10:57;10.37;;;7.80;;
16320;SDS011;8269;50.990;4.494;2023-04-03T03:13:23;12.20;;;8.57;;
16320;SDS011;8269;50.990;4.494;2023-04-03T03:15:49;9.93;;;7.70;;
16320;SDS011;8269;50.990;4.494;2023-04-03T03:18:16;11.73;;;8.80;;
16320;SDS011;8269;50.990;4.494;2023-04-03T03:20:42;11.37;;;8.83;;
16320;SDS011;8269;50.990;4.494;2023-04-03T03:23:08;12.40;;;8.53;;
16320;SDS011;8269;50.990;4.494;2023-04-03T03:25:38;12.20;;;8.80;;
16320;SDS011;8269;50.990;4.494;2023-04-03T03:28:05;11.93;;;8.30;;
16320;SDS011;8269;50.990;4.494;2023-04-03T03:30:31;12.13;;;8.27;;
16320;SDS011;8269;50.990;4.494;2023-04-03T03:32:57;11.07;;;8.80;;
16320;SDS011;8269;50.990;4.494;2023-04-03T03:35:23;10.63;;;8.40;;
16320;SDS011;8269;50.990;4.494;2023-04-03T03:37:49;11.20;;;8.53;;
16320;SDS011;8269;50.990;4.494;2023-04-03T03:40:15;11.37;;;8.60;;
16320;SDS011;8269;50.990;4.494;2023-04-03T03:42:41;13.00;;;8.97;;
16320;SDS011;8269;50.990;4.494;2023-04-03T03:45:07;14.67;;;8.70;;
16320;SDS011;8269;50.990;4.494;2023-04-03T03:47:33;12.57;;;9.20;;
16320;SDS011;8269;50.990;4.494;2023-04-03T03:50:00;12.57;;;9.47;;
16320;SDS011;8269;50.990;4.494;2023-04-03T03:52:26;14.67;;;9.60;;
16320;SDS011;8269;50.990;4.494;2023-04-03T03:54:52;12.13;;;9.27;;
16320;SDS011;8269;50.990;4.494;2023-04-03T03:57:18;11.97;;;9.50;;
16320;SDS011;8269;50.990;4.494;2023-04-03T03:59:44;11.77;;;9.17;;
16320;SDS011;8269;50.990;4.494;2023-04-03T04:02:12;12.37;;;9.27;;
16320;SDS011;8269;50.990;4.494;2023-04-03T04:04:38;13.20;;;10.73;;
16320;SDS011;8269;50.990;4.494;2023-04-03T04:07:04;14.43;;;10.00;;
16320;SDS011;8269;50.990;4.494;2023-04-03T04:09:30;12.23;;;8.80;;
16320;SDS011;8269;50.990;4.494;2023-04-03T04:11:56;12.57;;;9.53;;
16320;SDS011;8269;50.990;4.494;2023-04-03T04:14:22;15.00;;;8.97;;
16320;SDS011;8269;50.990;4.494;2023-04-03T04:16:48;12.77;;;9.37;;
16320;SDS011;8269;50.990;4.494;2023-04-03T04:19:14;13.17;;;8.83;;
16320;SDS011;8269;50.990;4.494;2023-04-03T04:21:40;12.17;;;9.77;;
16320;SDS011;8269;50.990;4.494;2023-04-03T04:24:07;12.70;;;9.43;;
16320;SDS011;8269;50.990;4.494;2023-04-03T04:26:33;14.50;;;10.70;;
16320;SDS011;8269;50.990;4.494;2023-04-03T04:28:59;11.53;;;9.50;;
16320;SDS011;8269;50.990;4.494;2023-04-03T04:31:26;14.33;;;10.23;;
16320;SDS011;8269;50.990;4.494;2023-04-03T04:33:52;13.03;;;9.63;;
16320;SDS011;8269;50.990;4.494;2023-04-03T04:36:18;14.23;;;9.83;;
16320;SDS011;8269;50.990;4.494;2023-04-03T04:38:44;14.60;;;9.67;;
16320;SDS011;8269;50.990;4.494;2023-04-03T04:41:10;13.63;;;9.87;;
16320;SDS011;8269;50.990;4.494;2023-04-03T04:43:36;14.97;;;10.57;;
16320;SDS011;8269;50.990;4.494;2023-04-03T04:46:06;16.77;;;9.60;;
16320;SDS011;8269;50.990;4.494;2023-04-03T04:48:33;13.67;;;10.07;;
16320;SDS011;8269;50.990;4.494;2023-04-03T04:50:59;12.83;;;10.07;;
16320;SDS011;8269;50.990;4.494;2023-04-03T04:53:26;14.90;;;10.70;;
16320;SDS011;8269;50.990;4.494;2023-04-03T04:55:52;16.50;;;10.70;;
16320;SDS011;8269;50.990;4.494;2023-04-03T04:58:18;13.20;;;9.53;;
16320;SDS011;8269;50.990;4.494;2023-04-03T05:00:45;13.40;;;10.43;;
16320;SDS011;8269;50.990;4.494;2023-04-03T05:03:11;12.47;;;9.93;;
16320;SDS011;8269;50.990;4.494;2023-04-03T05:05:37;15.13;;;10.97;;
16320;SDS011;8269;50.990;4.494;2023-04-03T05:08:04;14.30;;;11.23;;
16320;SDS011;8269;50.990;4.494;2023-04-03T05:10:30;16.30;;;10.80;;
16320;SDS011;8269;50.990;4.494;2023-04-03T05:12:56;15.87;;;10.97;;
16320;SDS011;8269;50.990;4.494;2023-04-03T05:15:22;15.80;;;10.83;;
16320;SDS011;8269;50.990;4.494;2023-04-03T05:17:48;14.70;;;10.37;;
16320;SDS011;8269;50.990;4.494;2023-04-03T05:20:16;17.30;;;11.27;;
16320;SDS011;8269;50.990;4.494;2023-04-03T05:22:42;16.97;;;11.77;;
16320;SDS011;8269;50.990;4.494;2023-04-03T05:25:08;16.20;;;11.50;;
16320;SDS011;8269;50.990;4.494;2023-04-03T05:27:34;18.30;;;10.83;;
16320;SDS011;8269;50.990;4.494;2023-04-03T05:30:00;14.73;;;11.60;;
16320;SDS011;8269;50.990;4.494;2023-04-03T05:32:26;15.23;;;11.57;;
16320;SDS011;8269;50.990;4.494;2023-04-03T05:34:53;14.67;;;11.17;;
16320;SDS011;8269;50.990;4.494;2023-04-03T05:37:19;14.57;;;10.13;;
16320;SDS011;8269;50.990;4.494;2023-04-03T05:39:45;19.73;;;12.00;;
16320;SDS011;8269;50.990;4.494;2023-04-03T05:42:11;14.47;;;11.43;;
16320;SDS011;8269;50.990;4.494;2023-04-03T05:44:38;15.33;;;11.53;;
16320;SDS011;8269;50.990;4.494;2023-04-03T05:47:04;14.47;;;11.63;;
16320;SDS011;8269;50.990;4.494;2023-04-03T05:49:30;16.47;;;11.47;;
16320;SDS011;8269;50.990;4.494;2023-04-03T05:51:56;16.60;;;11.53;;
16320;SDS011;8269;50.990;4.494;2023-04-03T05:54:26;14.17;;;11.30;;
16320;SDS011;8269;50.990;4.494;2023-04-03T05:56:52;18.23;;;11.27;;
16320;SDS011;8269;50.990;4.494;2023-04-03T05:59:19;15.60;;;11.27;;
16320;SDS011;8269;50.990;4.494;2023-04-03T06:01:45;14.93;;;11.53;;
16320;SDS011;8269;50.990;4.494;2023-04-03T06:04:11;14.43;;;11.67;;
16320;SDS011;8269;50.990;4.494;2023-04-03T06:09:10;16.47;;;11.77;;
16320;SDS011;8269;50.990;4.494;2023-04-03T06:11:37;15.23;;;11.67;;
16320;SDS011;8269;50.990;4.494;2023-04-03T06:14:04;14.57;;;11.60;;
16320;SDS011;8269;50.990;4.494;2023-04-03T06:16:30;14.70;;;11.80;;
16320;SDS011;8269;50.990;4.494;2023-04-03T06:18:56;16.50;;;11.70;;
16320;SDS011;8269;50.990;4.494;2023-04-03T06:21:22;15.73;;;11.97;;
16320;SDS011;8269;50.990;4.494;2023-04-03T06:23:48;14.87;;;11.53;;
16320;SDS011;8269;50.990;4.494;2023-04-03T06:26:14;13.77;;;11.20;;
16320;SDS011;8269;50.990;4.494;2023-04-03T06:28:40;16.97;;;11.73;;
16320;SDS011;8269;50.990;4.494;2023-04-03T06:31:06;15.70;;;10.60;;
16320;SDS011;8269;50.990;4.494;2023-04-03T06:33:33;12.63;;;8.60;;
16320;SDS011;8269;50.990;4.494;2023-04-03T06:35:59;9.63;;;8.13;;
16320;SDS011;8269;50.990;4.494;2023-04-03T06:38:26;10.63;;;7.90;;
16320;SDS011;8269;50.990;4.494;2023-04-03T06:40:52;10.13;;;7.70;;
16320;SDS011;8269;50.990;4.494;2023-04-03T06:43:18;8.73;;;7.33;;
16320;SDS011;8269;50.990;4.494;2023-04-03T06:45:45;9.47;;;7.20;;
16320;SDS011;8269;50.990;4.494;2023-04-03T06:48:11;9.50;;;7.30;;
16320;SDS011;8269;50.990;4.494;2023-04-03T06:50:38;9.90;;;6.83;;
16320;SDS011;8269;50.990;4.494;2023-04-03T06:53:04;9.50;;;6.23;;
16320;SDS011;8269;50.990;4.494;2023-04-03T06:55:31;9.17;;;6.80;;
16320;SDS011;8269;50.990;4.494;2023-04-03T06:57:57;9.93;;;6.60;;
16320;SDS011;8269;50.990;4.494;2023-04-03T07:00:23;8.17;;;6.47;;
16320;SDS011;8269;50.990;4.494;2023-04-03T07:02:49;9.73;;;6.60;;
16320;SDS011;8269;50.990;4.494;2023-04-03T07:05:16;8.47;;;6.40;;
16320;SDS011;8269;50.990;4.494;2023-04-03T07:07:42;8.57;;;5.67;;
16320;SDS011;8269;50.990;4.494;2023-04-03T07:10:09;9.57;;;6.03;;
16320;SDS011;8269;50.990;4.494;2023-04-03T07:12:36;7.20;;;5.63;;
16320;SDS011;8269;50.990;4.494;2023-04-03T07:15:03;8.43;;;5.63;;
16320;SDS011;8269;50.990;4.494;2023-04-03T07:17:29;9.27;;;5.77;;
16320;SDS011;8269;50.990;4.494;2023-04-03T07:19:55;9.73;;;5.70;;
16320;SDS011;8269;50.990;4.494;2023-04-03T07:22:21;9.27;;;5.77;;
16320;SDS011;8269;50.990;4.494;2023-04-03T07:24:47;8.27;;;5.50;;
16320;SDS011;8269;50.990;4.494;2023-04-03T07:27:13;8.23;;;5.13;;
16320;SDS011;8269;50.990;4.494;2023-04-03T07:29:39;7.30;;;4.90;;
16320;SDS011;8269;50.990;4.494;2023-04-03T07:32:05;8.30;;;5.20;;
16320;SDS011;8269;50.990;4.494;2023-04-03T07:34:31;9.50;;;5.23;;
16320;SDS011;8269;50.990;4.494;2023-04-03T07:36:58;8.03;;;5.07;;
16320;SDS011;8269;50.990;4.494;2023-04-03T07:39:23;7.07;;;5.13;;
16320;SDS011;8269;50.990;4.494;2023-04-03T07:41:49;9.77;;;5.13;;
16320;SDS011;8269;50.990;4.494;2023-04-03T07:44:15;8.27;;;4.73;;
16320;SDS011;8269;50.990;4.494;2023-04-03T07:46:41;6.90;;;5.17;;
16320;SDS011;8269;50.990;4.494;2023-04-03T07:49:07;11.30;;;5.00;;
16320;SDS011;8269;50.990;4.494;2023-04-03T07:51:33;6.10;;;4.90;;
16320;SDS011;8269;50.990;4.494;2023-04-03T07:53:59;9.13;;;4.90;;
16320;SDS011;8269;50.990;4.494;2023-04-03T07:56:25;8.23;;;4.90;;
16320;SDS011;8269;50.990;4.494;2023-04-03T07:58:50;8.60;;;5.03;;
16320;SDS011;8269;50.990;4.494;2023-04-03T08:01:16;8.17;;;4.80;;
16320;SDS011;8269;50.990;4.494;2023-04-03T08:03:42;10.70;;;5.10;;
16320;SDS011;8269;50.990;4.494;2023-04-03T08:06:08;9.30;;;4.77;;
16320;SDS011;8269;50.990;4.494;2023-04-03T08:08:34;7.03;;;4.70;;
16320;SDS011;8269;50.990;4.494;2023-04-03T08:11:01;6.47;;;4.00;;
16320;SDS011;8269;50.990;4.494;2023-04-03T08:13:28;7.00;;;4.27;;
16320;SDS011;8269;50.990;4.494;2023-04-03T08:15:54;8.63;;;4.00;;
16320;SDS011;8269;50.990;4.494;2023-04-03T08:18:22;8.37;;;4.27;;
16320;SDS011;8269;50.990;4.494;2023-04-03T08:20:49;8.60;;;3.83;;
16320;SDS011;8269;50.990;4.494;2023-04-03T08:23:15;8.20;;;4.60;;
16320;SDS011;8269;50.990;4.494;2023-04-03T08:25:41;6.00;;;3.90;;
16320;SDS011;8269;50.990;4.494;2023-04-03T08:28:10;6.83;;;3.60;;
16320;SDS011;8269;50.990;4.494;2023-04-03T08:30:38;7.60;;;3.50;;
16320;SDS011;8269;50.990;4.494;2023-04-03T08:33:05;7.07;;;3.80;;
16320;SDS011;8269;50.990;4.494;2023-04-03T08:35:31;7.07;;;3.70;;
16320;SDS011;8269;50.990;4.494;2023-04-03T08:37:56;6.93;;;3.30;;
16320;SDS011;8269;50.990;4.494;2023-04-03T08:40:22;9.53;;;3.63;;
16320;SDS011;8269;50.990;4.494;2023-04-03T08:42:51;6.57;;;3.60;;
16320;SDS011;8269;50.990;4.494;2023-04-03T08:48:08;5.87;;;3.00;;
16320;SDS011;8269;50.990;4.494;2023-04-03T08:50:53;6.23;;;3.13;;
16320;SDS011;8269;50.990;4.494;2023-04-03T08:53:25;5.43;;;2.47;;
16320;SDS011;8269;50.990;4.494;2023-04-03T08:55:53;4.47;;;2.40;;
16320;SDS011;8269;50.990;4.494;2023-04-03T08:58:30;5.50;;;2.60;;
16320;SDS011;8269;50.990;4.494;2023-04-03T09:01:02;5.83;;;2.70;;
16320;SDS011;8269;50.990;4.494;2023-04-03T09:03:32;5.23;;;2.57;;
16320;SDS011;8269;50.990;4.494;2023-04-03T09:06:05;5.30;;;2.50;;
16320;SDS011;8269;50.990;4.494;2023-04-03T09:08:44;5.27;;;2.13;;
16320;SDS011;8269;50.990;4.494;2023-04-03T09:14:23;4.60;;;2.40;;
16320;SDS011;8269;50.990;4.494;2023-04-03T09:16:59;5.73;;;2.33;;
16320;SDS011;8269;50.990;4.494;2023-04-03T09:20:21;6.10;;;4.33;;
16320;SDS011;8269;50.990;4.494;2023-04-03T09:22:41;4.73;;;2.20;;
16320;SDS011;8269;50.990;4.494;2023-04-03T09:27:37;4.27;;;2.00;;
16320;SDS011;8269;50.990;4.494;2023-04-03T09:30:03;5.60;;;2.00;;
16320;SDS011;8269;50.990;4.494;2023-04-03T09:32:36;3.83;;;2.10;;
16320;SDS011;8269;50.990;4.494;2023-04-03T09:35:03;3.43;;;1.97;;
16320;SDS011;8269;50.990;4.494;2023-04-03T09:37:45;4.03;;;2.10;;
16320;SDS011;8269;50.990;4.494;2023-04-03T09:40:28;5.03;;;1.87;;
16320;SDS011;8269;50.990;4.494;2023-04-03T09:45:41;4.40;;;1.80;;
16320;SDS011;8269;50.990;4.494;2023-04-03T09:53:04;6.75;;;2.10;;
16320;SDS011;8269;50.990;4.494;2023-04-03T09:55:32;12.33;;;6.13;;
16320;SDS011;8269;50.990;4.494;2023-04-03T10:00:31;7.30;;;4.00;;
16320;SDS011;8269;50.990;4.494;2023-04-03T10:12:43;4.47;;;2.27;;
16320;SDS011;8269;50.990;4.494;2023-04-03T10:15:13;6.63;;;2.00;;
16320;SDS011;8269;50.990;4.494;2023-04-03T10:18:00;5.33;;;2.70;;
16320;SDS011;8269;50.990;4.494;2023-04-03T10:27:56;3.10;;;1.80;;
16320;SDS011;8269;50.990;4.494;2023-04-03T10:30:33;3.73;;;1.80;;
16320;SDS011;8269;50.990;4.494;2023-04-03T10:33:11;3.80;;;1.70;;
16320;SDS011;8269;50.990;4.494;2023-04-03T10:35:45;4.20;;;1.93;;
16320;SDS011;8269;50.990;4.494;2023-04-03T10:48:40;8.23;;;2.03;;
16320;SDS011;8269;50.990;4.494;2023-04-03T10:54:23;5.60;;;2.53;;
16320;SDS011;8269;50.990;4.494;2023-04-03T10:59:01;4.43;;;2.00;;
16320;SDS011;8269;50.990;4.494;2023-04-03T11:01:32;4.10;;;1.87;;
16320;SDS011;8269;50.990;4.494;2023-04-03T11:04:00;4.40;;;1.73;;
16320;SDS011;8269;50.990;4.494;2023-04-03T11:11:26;3.60;;;1.80;;
16320;SDS011;8269;50.990;4.494;2023-04-03T11:13:58;3.90;;;1.90;;
16320;SDS011;8269;50.990;4.494;2023-04-03T11:16:28;4.20;;;1.87;;
16320;SDS011;8269;50.990;4.494;2023-04-03T11:18:56;4.07;;;1.87;;
16320;SDS011;8269;50.990;4.494;2023-04-03T11:26:16;4.90;;;1.93;;
16320;SDS011;8269;50.990;4.494;2023-04-03T11:28:43;5.17;;;2.00;;
16320;SDS011;8269;50.990;4.494;2023-04-03T11:31:12;5.03;;;2.00;;
16320;SDS011;8269;50.990;4.494;2023-04-03T11:33:49;3.40;;;1.47;;
16320;SDS011;8269;50.990;4.494;2023-04-03T11:41:09;3.95;;;1.60;;
16320;SDS011;8269;50.990;4.494;2023-04-03T11:43:55;3.60;;;1.60;;
16320;SDS011;8269;50.990;4.494;2023-04-03T11:46:22;6.10;;;1.50;;
16320;SDS011;8269;50.990;4.494;2023-04-03T11:48:49;4.63;;;1.80;;
16320;SDS011;8269;50.990;4.494;2023-04-03T11:53:54;3.13;;;1.50;;
16320;SDS011;8269;50.990;4.494;2023-04-03T12:04:09;4.13;;;1.23;;
16320;SDS011;8269;50.990;4.494;2023-04-03T12:11:32;4.05;;;1.60;;
16320;SDS011;8269;50.990;4.494;2023-04-03T12:26:22;2.80;;;1.38;;
16320;SDS011;8269;50.990;4.494;2023-04-03T12:28:51;3.43;;;1.30;;
16320;SDS011;8269;50.990;4.494;2023-04-03T12:31:18;3.53;;;1.20;;
16320;SDS011;8269;50.990;4.494;2023-04-03T12:36:15;2.90;;;1.20;;
16320;SDS011;8269;50.990;4.494;2023-04-03T12:38:56;3.13;;;1.40;;
16320;SDS011;8269;50.990;4.494;2023-04-03T12:41:46;2.83;;;1.27;;
16320;SDS011;8269;50.990;4.494;2023-04-03T12:49:43;3.50;;;1.30;;
16320;SDS011;8269;50.990;4.494;2023-04-03T12:52:30;4.13;;;1.50;;
16320;SDS011;8269;50.990;4.494;2023-04-03T12:54:58;3.33;;;1.30;;
16320;SDS011;8269;50.990;4.494;2023-04-03T12:57:28;2.70;;;1.40;;
16320;SDS011;8269;50.990;4.494;2023-04-03T12:59:54;2.87;;;1.27;;
16320;SDS011;8269;50.990;4.494;2023-04-03T13:04:48;4.03;;;1.33;;
16320;SDS011;8269;50.990;4.494;2023-04-03T13:07:19;4.63;;;1.73;;
16320;SDS011;8269;50.990;4.494;2023-04-03T13:09:54;3.20;;;1.50;;
16320;SDS011;8269;50.990;4.494;2023-04-03T13:12:20;4.03;;;1.53;;
16320;SDS011;8269;50.990;4.494;2023-04-03T13:14:54;3.13;;;1.20;;
16320;SDS011;8269;50.990;4.494;2023-04-03T13:17:20;3.37;;;1.43;;
16320;SDS011;8269;50.990;4.494;2023-04-03T13:24:39;4.40;;;1.70;;
16320;SDS011;8269;50.990;4.494;2023-04-03T13:27:05;3.80;;;1.73;;
16320;SDS011;8269;50.990;4.494;2023-04-03T13:29:32;4.60;;;1.83;;
16320;SDS011;8269;50.990;4.494;2023-04-03T13:31:59;5.47;;;1.90;;
16320;SDS011;8269;50.990;4.494;2023-04-03T13:34:27;4.43;;;1.70;;
16320;SDS011;8269;50.990;4.494;2023-04-03T13:36:57;3.47;;;1.53;;
16320;SDS011;8269;50.990;4.494;2023-04-03T13:39:25;6.23;;;1.73;;
16320;SDS011;8269;50.990;4.494;2023-04-03T13:41:52;4.17;;;1.80;;
16320;SDS011;8269;50.990;4.494;2023-04-03T13:46:51;3.70;;;1.60;;
16320;SDS011;8269;50.990;4.494;2023-04-03T13:49:27;4.40;;;1.60;;
16320;SDS011;8269;50.990;4.494;2023-04-03T13:51:55;4.33;;;1.60;;
16320;SDS011;8269;50.990;4.494;2023-04-03T13:54:28;3.27;;;1.50;;
16320;SDS011;8269;50.990;4.494;2023-04-03T13:56:56;5.33;;;1.60;;
16320;SDS011;8269;50.990;4.494;2023-04-03T13:59:35;4.70;;;1.50;;
16320;SDS011;8269;50.990;4.494;2023-04-03T14:04:28;2.83;;;1.23;;
16320;SDS011;8269;50.990;4.494;2023-04-03T14:06:55;5.67;;;1.73;;
16320;SDS011;8269;50.990;4.494;2023-04-03T14:09:22;4.33;;;1.60;;
16320;SDS011;8269;50.990;4.494;2023-04-03T14:11:49;3.73;;;1.70;;
16320;SDS011;8269;50.990;4.494;2023-04-03T14:14:22;3.73;;;1.80;;
16320;SDS011;8269;50.990;4.494;2023-04-03T14:16:51;3.37;;;1.60;;
16320;SDS011;8269;50.990;4.494;2023-04-03T14:19:19;2.87;;;1.50;;
16320;SDS011;8269;50.990;4.494;2023-04-03T14:21:46;3.83;;;1.23;;
16320;SDS011;8269;50.990;4.494;2023-04-03T14:24:13;2.60;;;1.40;;
16320;SDS011;8269;50.990;4.494;2023-04-03T14:26:39;3.27;;;1.50;;
16320;SDS011;8269;50.990;4.494;2023-04-03T14:29:05;4.17;;;1.33;;
16320;SDS011;8269;50.990;4.494;2023-04-03T14:31:31;4.73;;;1.60;;
16320;SDS011;8269;50.990;4.494;2023-04-03T14:33:57;4.70;;;1.60;;
16320;SDS011;8269;50.990;4.494;2023-04-03T14:36:24;3.97;;;1.47;;
16320;SDS011;8269;50.990;4.494;2023-04-03T14:38:51;4.70;;;1.30;;
16320;SDS011;8269;50.990;4.494;2023-04-03T14:41:18;2.67;;;1.30;;
16320;SDS011;8269;50.990;4.494;2023-04-03T14:43:45;2.17;;;1.20;;
16320;SDS011;8269;50.990;4.494;2023-04-03T14:46:15;2.73;;;1.30;;
16320;SDS011;8269;50.990;4.494;2023-04-03T14:48:42;2.43;;;1.30;;
16320;SDS011;8269;50.990;4.494;2023-04-03T14:51:11;2.93;;;1.50;;
16320;SDS011;8269;50.990;4.494;2023-04-03T14:53:37;6.83;;;1.50;;
16320;SDS011;8269;50.990;4.494;2023-04-03T14:56:08;2.20;;;1.20;;
16320;SDS011;8269;50.990;4.494;2023-04-03T14:58:36;2.63;;;1.40;;
16320;SDS011;8269;50.990;4.494;2023-04-03T15:01:02;4.10;;;1.60;;
16320;SDS011;8269;50.990;4.494;2023-04-03T15:03:28;3.07;;;1.20;;
16320;SDS011;8269;50.990;4.494;2023-04-03T15:05:54;3.03;;;1.30;;
16320;SDS011;8269;50.990;4.494;2023-04-03T15:08:21;3.37;;;1.40;;
16320;SDS011;8269;50.990;4.494;2023-04-03T15:10:48;3.73;;;1.50;;
16320;SDS011;8269;50.990;4.494;2023-04-03T15:13:15;3.80;;;1.53;;
16320;SDS011;8269;50.990;4.494;2023-04-03T15:15:41;4.87;;;1.30;;
16320;SDS011;8269;50.990;4.494;2023-04-03T15:18:09;2.17;;;1.10;;
16320;SDS011;8269;50.990;4.494;2023-04-03T15:20:36;2.80;;;1.33;;
16320;SDS011;8269;50.990;4.494;2023-04-03T15:23:02;5.00;;;1.63;;
16320;SDS011;8269;50.990;4.494;2023-04-03T15:25:29;4.47;;;1.53;;
16320;SDS011;8269;50.990;4.494;2023-04-03T15:27:55;1.87;;;1.20;;
16320;SDS011;8269;50.990;4.494;2023-04-03T15:30:22;3.20;;;1.50;;
16320;SDS011;8269;50.990;4.494;2023-04-03T15:32:48;3.33;;;1.40;;
16320;SDS011;8269;50.990;4.494;2023-04-03T15:35:14;2.90;;;1.27;;
16320;SDS011;8269;50.990;4.494;2023-04-03T15:37:41;2.07;;;1.30;;
16320;SDS011;8269;50.990;4.494;2023-04-03T15:40:07;3.97;;;1.60;;
16320;SDS011;8269;50.990;4.494;2023-04-03T15:42:33;3.70;;;1.23;;
16320;SDS011;8269;50.990;4.494;2023-04-03T15:45:00;3.40;;;1.60;;
16320;SDS011;8269;50.990;4.494;2023-04-03T15:49:52;2.93;;;1.23;;
16320;SDS011;8269;50.990;4.494;2023-04-03T15:57:10;4.47;;;1.60;;
16320;SDS011;8269;50.990;4.494;2023-04-03T15:59:36;2.90;;;1.40;;
16320;SDS011;8269;50.990;4.494;2023-04-03T16:02:03;3.27;;;1.40;;
16320;SDS011;8269;50.990;4.494;2023-04-03T16:04:29;3.63;;;1.50;;
16320;SDS011;8269;50.990;4.494;2023-04-03T16:06:55;2.43;;;1.57;;
16320;SDS011;8269;50.990;4.494;2023-04-03T16:09:22;2.70;;;1.47;;
16320;SDS011;8269;50.990;4.494;2023-04-03T16:11:48;2.63;;;1.43;;
16320;SDS011;8269;50.990;4.494;2023-04-03T16:14:14;1.87;;;1.10;;
16320;SDS011;8269;50.990;4.494;2023-04-03T16:16:40;3.50;;;1.30;;
16320;SDS011;8269;50.990;4.494;2023-04-03T16:19:06;3.37;;;1.50;;
16320;SDS011;8269;50.990;4.494;2023-04-03T16:21:32;2.93;;;1.27;;
16320;SDS011;8269;50.990;4.494;2023-04-03T16:23:59;4.03;;;1.70;;
16320;SDS011;8269;50.990;4.494;2023-04-03T16:26:25;3.13;;;1.33;;
16320;SDS011;8269;50.990;4.494;2023-04-03T16:28:51;1.97;;;1.40;;
16320;SDS011;8269;50.990;4.494;2023-04-03T16:31:18;4.13;;;1.53;;
16320;SDS011;8269;50.990;4.494;2023-04-03T16:33:44;2.73;;;1.33;;
16320;SDS011;8269;50.990;4.494;2023-04-03T16:36:10;3.63;;;1.70;;
16320;SDS011;8269;50.990;4.494;2023-04-03T16:38:36;4.43;;;1.50;;
16320;SDS011;8269;50.990;4.494;2023-04-03T16:41:02;2.80;;;1.50;;
16320;SDS011;8269;50.990;4.494;2023-04-03T16:43:30;2.47;;;1.60;;
16320;SDS011;8269;50.990;4.494;2023-04-03T16:45:56;3.10;;;1.50;;
16320;SDS011;8269;50.990;4.494;2023-04-03T16:48:22;4.30;;;1.57;;
16320;SDS011;8269;50.990;4.494;2023-04-03T16:50:48;2.83;;;1.60;;
16320;SDS011;8269;50.990;4.494;2023-04-03T16:53:18;4.13;;;1.80;;
16320;SDS011;8269;50.990;4.494;2023-04-03T16:55:44;4.50;;;1.80;;
16320;SDS011;8269;50.990;4.494;2023-04-03T16:58:10;3.70;;;1.90;;
16320;SDS011;8269;50.990;4.494;2023-04-03T17:00:36;3.53;;;1.77;;
16320;SDS011;8269;50.990;4.494;2023-04-03T17:03:02;4.63;;;1.60;;
16320;SDS011;8269;50.990;4.494;2023-04-03T17:05:28;5.90;;;1.70;;